sensor_id;sensor_type;location;lat;lon;timestamp;pressure;altitude;pressure_sealevel;temperature;humidity
39555;BME280;25231;48.746;9.234;2023-04-02T00:09:25;95932.59;;;7.27;100.00
39555;BME280;25231;48.746;9.234;2023-04-02T00:11:53;95933.97;;;7.30;100.00
39555;BME280;25231;48.746;9.234;2023-04-02T00:14:30;95937.22;;;7.25;100.00
39555;BME280;25231;48.746;9.234;2023-04-02T00:17:00;95939.03;;;7.25;100.00
39555;BME280;25231;48.746;9.234;2023-04-02T00:19:49;95945.50;;;7.22;100.00
39555;BME280;25231;48.746;9.234;2023-04-02T00:22:18;95940.19;;;7.29;100.00
39555;BME280;25231;48.746;9.234;2023-04-02T00:24:44;95942.56;;;7.19;100.00
39555;BME280;25231;48.746;9.234;2023-04-02T00:27:12;95944.81;;;7.15;100.00
39555;BME280;25231;48.746;9.234;2023-04-02T00:29:46;95944.13;;;7.20;100.00
39555;BME280;25231;48.746;9.234;2023-04-02T00:32:18;95952.84;;;7.25;100.00
39555;BME280;25231;48.746;9.234;2023-04-02T00:34:45;95954.22;;;7.28;100.00
39555;BME280;25231;48.746;9.234;2023-04-02T00:37:19;95949.44;;;7.25;100.00
39555;BME280;25231;48.746;9.234;2023-04-02T00:39:49;95951.03;;;7.14;100.00
39555;BME280;25231;48.746;9.234;2023-04-02T00:42:15;95952.84;;;7.25;100.00
39555;BME280;25231;48.746;9.234;2023-04-02T00:44:44;95951.28;;;7.24;100.00
39555;BME280;25231;48.746;9.234;2023-04-02T00:47:31;95953.09;;;7.24;100.00
39555;BME280;25231;48.746;9.234;2023-04-02T00:50:06;95950.72;;;7.22;100.00
39555;BME280;25231;48.746;9.234;2023-04-02T00:52:44;95942.09;;;7.22;100.00
39555;BME280;25231;48.746;9.234;2023-04-02T00:55:18;95946.84;;;7.13;100.00
39555;BME280;25231;48.746;9.234;2023-04-02T00:57:50;95944.38;;;7.18;100.00
39555;BME280;25231;48.746;9.234;2023-04-02T01:00:28;95948.91;;;7.23;100.00
39555;BME280;25231;48.746;9.234;2023-04-02T01:05:55;95950.13;;;7.20;100.00
39555;BME280;25231;48.746;9.234;2023-04-02T01:14:36;95964.31;;;7.24;100.00
39555;BME280;25231;48.746;9.234;2023-04-02T01:17:28;95964.53;;;7.23;100.00
39555;BME280;25231;48.746;9.234;2023-04-02T01:22:44;95958.06;;;7.37;100.00
39555;BME280;25231;48.746;9.234;2023-04-02T01:25:18;95966.25;;;7.40;100.00
39555;BME280;25231;48.746;9.234;2023-04-02T01:27:55;95962.16;;;7.33;100.00
39555;BME280;25231;48.746;9.234;2023-04-02T01:30:22;95964.19;;;7.42;100.00
39555;BME280;25231;48.746;9.234;2023-04-02T01:32:48;95966.00;;;7.30;100.00
39555;BME280;25231;48.746;9.234;2023-04-02T01:35:13;95975.09;;;7.39;100.00
39555;BME280;25231;48.746;9.234;2023-04-02T01:37:53;95962.03;;;7.28;100.00
39555;BME280;25231;48.746;9.234;2023-04-02T01:40:48;95960.13;;;7.35;100.00
39555;BME280;25231;48.746;9.234;2023-04-02T01:43:29;95970.09;;;7.26;100.00
39555;BME280;25231;48.746;9.234;2023-04-02T01:45:57;95971.22;;;7.30;100.00
39555;BME280;25231;48.746;9.234;2023-04-02T01:48:25;95972.91;;;7.36;100.00
39555;BME280;25231;48.746;9.234;2023-04-02T01:50:55;95978.38;;;7.46;100.00
39555;BME280;25231;48.746;9.234;2023-04-02T01:53:23;95979.94;;;7.47;100.00
39555;BME280;25231;48.746;9.234;2023-04-02T01:55:57;95976.78;;;7.34;100.00
39555;BME280;25231;48.746;9.234;2023-04-02T01:58:26;95974.28;;;7.39;100.00
39555;BME280;25231;48.746;9.234;2023-04-02T02:00:58;95989.72;;;7.40;100.00
39555;BME280;25231;48.746;9.234;2023-04-02T02:03:25;95983.91;;;7.38;100.00
39555;BME280;25231;48.746;9.234;2023-04-02T02:05:51;95990.03;;;7.32;100.00
39555;BME280;25231;48.746;9.234;2023-04-02T02:10:57;95993.34;;;7.39;100.00
39555;BME280;25231;48.746;9.234;2023-04-02T02:13:23;95995.81;;;7.34;100.00
39555;BME280;25231;48.746;9.234;2023-04-02T02:15:48;95993.78;;;7.36;100.00
39555;BME280;25231;48.746;9.234;2023-04-02T02:18:16;95992.97;;;7.36;100.00
39555;BME280;25231;48.746;9.234;2023-04-02T02:20:43;95998.97;;;7.36;100.00
39555;BME280;25231;48.746;9.234;2023-04-02T02:23:10;96002.06;;;7.45;100.00
39555;BME280;25231;48.746;9.234;2023-04-02T02:25:37;96007.97;;;7.40;100.00
39555;BME280;25231;48.746;9.234;2023-04-02T02:28:13;96002.16;;;7.38;100.00
39555;BME280;25231;48.746;9.234;2023-04-02T02:31:02;96009.66;;;7.35;100.00
39555;BME280;25231;48.746;9.234;2023-04-02T02:33:36;96014.31;;;7.44;100.00
39555;BME280;25231;48.746;9.234;2023-04-02T02:36:23;96026.44;;;7.39;100.00
39555;BME280;25231;48.746;9.234;2023-04-02T02:38:56;96027.00;;;7.41;100.00
39555;BME280;25231;48.746;9.234;2023-04-02T02:41:27;96016.00;;;7.50;100.00
39555;BME280;25231;48.746;9.234;2023-04-02T02:44:05;96020.88;;;7.59;100.00
39555;BME280;25231;48.746;9.234;2023-04-02T02:46:43;96026.06;;;7.47;100.00
39555;BME280;25231;48.746;9.234;2023-04-02T02:49:15;96024.50;;;7.46;100.00
39555;BME280;25231;48.746;9.234;2023-04-02T02:52:05;96027.13;;;7.46;100.00
39555;BME280;25231;48.746;9.234;2023-04-02T02:54:39;96037.56;;;7.46;100.00
39555;BME280;25231;48.746;9.234;2023-04-02T02:57:12;96026.66;;;7.61;100.00
39555;BME280;25231;48.746;9.234;2023-04-02T02:59:38;96026.22;;;7.52;100.00
39555;BME280;25231;48.746;9.234;2023-04-02T03:02:05;96022.34;;;7.55;100.00
39555;BME280;25231;48.746;9.234;2023-04-02T03:04:34;96038.69;;;7.50;100.00
39555;BME280;25231;48.746;9.234;2023-04-02T03:07:00;96039.00;;;7.53;100.00
39555;BME280;25231;48.746;9.234;2023-04-02T03:13:09;96049.00;;;7.45;100.00
39555;BME280;25231;48.746;9.234;2023-04-02T03:15:37;96049.22;;;7.43;100.00
39555;BME280;25231;48.746;9.234;2023-04-02T03:18:10;96056.47;;;7.53;100.00
39555;BME280;25231;48.746;9.234;2023-04-02T03:20:52;96043.91;;;7.62;100.00
39555;BME280;25231;48.746;9.234;2023-04-02T03:23:27;96046.72;;;7.60;100.00
39555;BME280;25231;48.746;9.234;2023-04-02T03:25:59;96060.78;;;7.59;100.00
39555;BME280;25231;48.746;9.234;2023-04-02T03:28:29;96063.19;;;7.61;100.00
39555;BME280;25231;48.746;9.234;2023-04-02T03:31:21;96059.66;;;7.67;100.00
39555;BME280;25231;48.746;9.234;2023-04-02T03:34:19;96064.41;;;7.58;100.00
39555;BME280;25231;48.746;9.234;2023-04-02T03:36:53;96072.00;;;7.60;100.00
39555;BME280;25231;48.746;9.234;2023-04-02T03:39:24;96073.94;;;7.64;100.00
39555;BME280;25231;48.746;9.234;2023-04-02T03:42:11;96073.91;;;7.52;100.00
39555;BME280;25231;48.746;9.234;2023-04-02T03:44:45;96078.00;;;7.48;100.00
39555;BME280;25231;48.746;9.234;2023-04-02T03:47:46;96079.81;;;7.48;100.00
39555;BME280;25231;48.746;9.234;2023-04-02T03:51:19;96089.03;;;7.50;100.00
39555;BME280;25231;48.746;9.234;2023-04-02T03:53:22;96092.63;;;7.49;100.00
39555;BME280;25231;48.746;9.234;2023-04-02T03:55:48;96087.75;;;7.53;100.00
39555;BME280;25231;48.746;9.234;2023-04-02T03:58:46;96095.81;;;7.51;100.00
39555;BME280;25231;48.746;9.234;2023-04-02T04:01:19;96092.97;;;7.53;100.00
39555;BME280;25231;48.746;9.234;2023-04-02T04:03:53;96093.44;;;7.50;100.00
39555;BME280;25231;48.746;9.234;2023-04-02T04:06:23;96095.59;;;7.53;100.00
39555;BME280;25231;48.746;9.234;2023-04-02T04:08:55;96093.66;;;7.48;100.00
39555;BME280;25231;48.746;9.234;2023-04-02T04:11:31;96099.09;;;7.59;100.00
39555;BME280;25231;48.746;9.234;2023-04-02T04:14:06;96101.69;;;7.47;100.00
39555;BME280;25231;48.746;9.234;2023-04-02T04:16:50;96097.06;;;7.49;100.00
39555;BME280;25231;48.746;9.234;2023-04-02T04:19:26;96099.44;;;7.50;100.00
39555;BME280;25231;48.746;9.234;2023-04-02T04:22:12;96110.28;;;7.36;100.00
39555;BME280;25231;48.746;9.234;2023-04-02T04:24:39;96115.41;;;7.42;100.00
39555;BME280;25231;48.746;9.234;2023-04-02T04:27:30;96114.38;;;7.43;100.00
39555;BME280;25231;48.746;9.234;2023-04-02T04:30:04;96114.03;;;7.40;100.00
39555;BME280;25231;48.746;9.234;2023-04-02T04:32:37;96108.75;;;7.46;100.00
39555;BME280;25231;48.746;9.234;2023-04-02T04:35:21;96107.91;;;7.34;100.00
39555;BME280;25231;48.746;9.234;2023-04-02T04:37:49;96130.78;;;7.32;100.00
39555;BME280;25231;48.746;9.234;2023-04-02T04:40:25;96124.00;;;7.43;100.00
39555;BME280;25231;48.746;9.234;2023-04-02T04:42:55;96132.38;;;7.33;100.00
39555;BME280;25231;48.746;9.234;2023-04-02T04:47:57;96130.53;;;7.52;100.00
39555;BME280;25231;48.746;9.234;2023-04-02T04:50:29;96133.84;;;7.29;100.00
39555;BME280;25231;48.746;9.234;2023-04-02T04:52:56;96137.38;;;7.35;100.00
39555;BME280;25231;48.746;9.234;2023-04-02T04:55:34;96143.81;;;7.32;100.00
39555;BME280;25231;48.746;9.234;2023-04-02T04:58:21;96146.34;;;7.39;100.00
39555;BME280;25231;48.746;9.234;2023-04-02T05:00:52;96148.03;;;7.33;100.00
39555;BME280;25231;48.746;9.234;2023-04-02T05:03:29;96151.69;;;7.44;100.00
39555;BME280;25231;48.746;9.234;2023-04-02T05:06:36;96156.44;;;7.35;100.00
39555;BME280;25231;48.746;9.234;2023-04-02T05:09:14;96153.66;;;7.30;100.00
39555;BME280;25231;48.746;9.234;2023-04-02T05:12:02;96158.88;;;7.30;100.00
39555;BME280;25231;48.746;9.234;2023-04-02T05:17:41;96165.38;;;7.39;100.00
39555;BME280;25231;48.746;9.234;2023-04-02T05:20:20;96161.78;;;7.40;100.00
39555;BME280;25231;48.746;9.234;2023-04-02T05:22:55;96173.28;;;7.63;100.00
39555;BME280;25231;48.746;9.234;2023-04-02T05:25:22;96168.41;;;7.66;100.00
39555;BME280;25231;48.746;9.234;2023-04-02T05:27:59;96170.28;;;7.47;100.00
39555;BME280;25231;48.746;9.234;2023-04-02T05:32:56;96180.16;;;7.45;100.00
39555;BME280;25231;48.746;9.234;2023-04-02T05:35:32;96174.25;;;7.50;100.00
39555;BME280;25231;48.746;9.234;2023-04-02T05:37:59;96184.81;;;7.55;100.00
39555;BME280;25231;48.746;9.234;2023-04-02T05:40:33;96183.81;;;7.56;100.00
39555;BME280;25231;48.746;9.234;2023-04-02T05:43:02;96182.78;;;7.57;100.00
39555;BME280;25231;48.746;9.234;2023-04-02T05:45:34;96188.94;;;7.63;100.00
39555;BME280;25231;48.746;9.234;2023-04-02T05:48:06;96200.06;;;7.70;100.00
39555;BME280;25231;48.746;9.234;2023-04-02T05:50:43;96192.47;;;7.68;100.00
39555;BME280;25231;48.746;9.234;2023-04-02T05:53:20;96206.69;;;7.84;100.00
39555;BME280;25231;48.746;9.234;2023-04-02T05:55:52;96211.31;;;7.82;100.00
39555;BME280;25231;48.746;9.234;2023-04-02T05:58:30;96212.91;;;7.83;100.00
39555;BME280;25231;48.746;9.234;2023-04-02T06:01:04;96212.19;;;7.76;100.00
39555;BME280;25231;48.746;9.234;2023-04-02T06:09:14;96219.59;;;7.79;100.00
39555;BME280;25231;48.746;9.234;2023-04-02T06:11:48;96225.34;;;7.69;100.00
39555;BME280;25231;48.746;9.234;2023-04-02T06:14:16;96227.72;;;7.71;100.00
39555;BME280;25231;48.746;9.234;2023-04-02T06:16:43;96234.75;;;7.70;100.00
39555;BME280;25231;48.746;9.234;2023-04-02T06:19:15;96237.81;;;7.67;100.00
39555;BME280;25231;48.746;9.234;2023-04-02T06:21:47;96229.88;;;7.62;100.00
39555;BME280;25231;48.746;9.234;2023-04-02T06:24:17;96244.34;;;7.88;100.00
39555;BME280;25231;48.746;9.234;2023-04-02T06:26:48;96239.66;;;7.78;100.00
39555;BME280;25231;48.746;9.234;2023-04-02T06:29:30;96247.41;;;7.85;100.00
39555;BME280;25231;48.746;9.234;2023-04-02T06:32:03;96246.75;;;7.89;100.00
39555;BME280;25231;48.746;9.234;2023-04-02T06:34:31;96253.56;;;7.90;100.00
39555;BME280;25231;48.746;9.234;2023-04-02T06:36:59;96254.09;;;7.92;100.00
39555;BME280;25231;48.746;9.234;2023-04-02T06:39:27;96256.72;;;7.92;100.00
39555;BME280;25231;48.746;9.234;2023-04-02T06:42:13;96255.81;;;7.99;100.00
39555;BME280;25231;48.746;9.234;2023-04-02T06:44:40;96266.97;;;8.06;100.00
39555;BME280;25231;48.746;9.234;2023-04-02T06:47:31;96271.72;;;8.09;100.00
39555;BME280;25231;48.746;9.234;2023-04-02T06:50:12;96275.28;;;8.26;100.00
39555;BME280;25231;48.746;9.234;2023-04-02T06:52:44;96281.88;;;8.17;100.00
39555;BME280;25231;48.746;9.234;2023-04-02T06:55:28;96282.09;;;8.15;100.00
39555;BME280;25231;48.746;9.234;2023-04-02T06:57:54;96289.09;;;8.33;100.00
39555;BME280;25231;48.746;9.234;2023-04-02T07:00:35;96300.81;;;8.54;100.00
39555;BME280;25231;48.746;9.234;2023-04-02T07:03:05;96305.22;;;8.42;100.00
39555;BME280;25231;48.746;9.234;2023-04-02T07:05:30;96309.75;;;8.34;100.00
39555;BME280;25231;48.746;9.234;2023-04-02T07:07:56;96317.59;;;8.34;100.00
39555;BME280;25231;48.746;9.234;2023-04-02T07:10:21;96309.88;;;8.40;100.00
39555;BME280;25231;48.746;9.234;2023-04-02T07:12:46;96312.41;;;8.58;100.00
39555;BME280;25231;48.746;9.234;2023-04-02T07:15:16;96316.97;;;8.62;100.00
39555;BME280;25231;48.746;9.234;2023-04-02T07:17:43;96313.31;;;8.75;100.00
39555;BME280;25231;48.746;9.234;2023-04-02T07:20:30;96317.88;;;8.80;100.00
39555;BME280;25231;48.746;9.234;2023-04-02T07:22:56;96320.47;;;9.03;100.00
39555;BME280;25231;48.746;9.234;2023-04-02T07:25:23;96328.47;;;9.08;100.00
39555;BME280;25231;48.746;9.234;2023-04-02T07:27:50;96326.50;;;9.03;100.00
39555;BME280;25231;48.746;9.234;2023-04-02T07:30:15;96338.13;;;9.19;100.00
39555;BME280;25231;48.746;9.234;2023-04-02T07:32:41;96337.44;;;9.00;100.00
39555;BME280;25231;48.746;9.234;2023-04-02T07:35:07;96344.47;;;9.00;100.00
39555;BME280;25231;48.746;9.234;2023-04-02T07:37:34;96345.81;;;9.14;100.00
39555;BME280;25231;48.746;9.234;2023-04-02T07:39:59;96354.47;;;9.14;100.00
39555;BME280;25231;48.746;9.234;2023-04-02T07:42:25;96351.06;;;9.02;100.00
39555;BME280;25231;48.746;9.234;2023-04-02T07:44:50;96352.53;;;8.98;100.00
39555;BME280;25231;48.746;9.234;2023-04-02T07:47:15;96352.66;;;9.03;100.00
39555;BME280;25231;48.746;9.234;2023-04-02T07:49:41;96358.78;;;9.09;100.00
39555;BME280;25231;48.746;9.234;2023-04-02T07:52:06;96359.25;;;9.17;100.00
39555;BME280;25231;48.746;9.234;2023-04-02T07:54:32;96368.44;;;9.20;100.00
39555;BME280;25231;48.746;9.234;2023-04-02T07:56:57;96370.03;;;9.21;100.00
39555;BME280;25231;48.746;9.234;2023-04-02T07:59:22;96375.97;;;9.28;100.00
39555;BME280;25231;48.746;9.234;2023-04-02T08:01:48;96375.75;;;9.30;100.00
39555;BME280;25231;48.746;9.234;2023-04-02T08:04:21;96383.00;;;9.39;100.00
39555;BME280;25231;48.746;9.234;2023-04-02T08:06:47;96386.41;;;9.40;100.00
39555;BME280;25231;48.746;9.234;2023-04-02T08:09:14;96386.19;;;9.41;100.00
39555;BME280;25231;48.746;9.234;2023-04-02T08:11:40;96391.88;;;9.50;100.00
39555;BME280;25231;48.746;9.234;2023-04-02T08:14:07;96390.16;;;9.55;100.00
39555;BME280;25231;48.746;9.234;2023-04-02T08:16:47;96389.56;;;9.53;100.00
39555;BME280;25231;48.746;9.234;2023-04-02T08:19:13;96396.88;;;9.51;100.00
39555;BME280;25231;48.746;9.234;2023-04-02T08:21:39;96391.69;;;9.91;100.00
39555;BME280;25231;48.746;9.234;2023-04-02T08:24:05;96396.69;;;9.93;100.00
39555;BME280;25231;48.746;9.234;2023-04-02T08:26:30;96403.41;;;9.89;100.00
39555;BME280;25231;48.746;9.234;2023-04-02T08:28:55;96401.66;;;10.06;100.00
39555;BME280;25231;48.746;9.234;2023-04-02T08:31:21;96414.22;;;9.81;100.00
39555;BME280;25231;48.746;9.234;2023-04-02T08:33:47;96414.19;;;9.92;100.00
39555;BME280;25231;48.746;9.234;2023-04-02T08:36:17;96416.56;;;10.17;100.00
39555;BME280;25231;48.746;9.234;2023-04-02T08:38:43;96421.47;;;10.02;100.00
39555;BME280;25231;48.746;9.234;2023-04-02T08:41:19;96422.16;;;9.97;100.00
39555;BME280;25231;48.746;9.234;2023-04-02T08:44:28;96425.91;;;10.13;100.00
39555;BME280;25231;48.746;9.234;2023-04-02T08:47:05;96427.84;;;10.18;100.00
39555;BME280;25231;48.746;9.234;2023-04-02T08:49:49;96430.88;;;10.15;100.00
39555;BME280;25231;48.746;9.234;2023-04-02T08:52:25;96439.56;;;10.03;100.00
39555;BME280;25231;48.746;9.234;2023-04-02T08:54:51;96439.72;;;9.97;100.00
39555;BME280;25231;48.746;9.234;2023-04-02T09:03:09;96444.97;;;9.62;100.00
39555;BME280;25231;48.746;9.234;2023-04-02T09:05:40;96451.56;;;9.53;100.00
39555;BME280;25231;48.746;9.234;2023-04-02T09:08:25;96460.66;;;9.27;100.00
39555;BME280;25231;48.746;9.234;2023-04-02T09:13:44;96454.19;;;8.76;100.00
39555;BME280;25231;48.746;9.234;2023-04-02T09:16:12;96467.47;;;8.75;100.00
39555;BME280;25231;48.746;9.234;2023-04-02T09:18:39;96471.56;;;8.71;100.00
39555;BME280;25231;48.746;9.234;2023-04-02T09:21:29;96464.97;;;8.68;100.00
39555;BME280;25231;48.746;9.234;2023-04-02T09:23:55;96472.06;;;8.80;100.00
39555;BME280;25231;48.746;9.234;2023-04-02T09:26:27;96474.75;;;8.73;100.00
39555;BME280;25231;48.746;9.234;2023-04-02T09:29:01;96474.16;;;8.71;100.00
39555;BME280;25231;48.746;9.234;2023-04-02T09:31:34;96478.97;;;8.74;100.00
39555;BME280;25231;48.746;9.234;2023-04-02T09:34:28;96484.34;;;8.91;100.00
39555;BME280;25231;48.746;9.234;2023-04-02T09:36:55;96491.47;;;8.84;100.00
39555;BME280;25231;48.746;9.234;2023-04-02T09:39:24;96500.06;;;9.02;100.00
39555;BME280;25231;48.746;9.234;2023-04-02T09:41:51;96502.53;;;8.86;100.00
39555;BME280;25231;48.746;9.234;2023-04-02T09:44:22;96512.03;;;9.22;100.00
39555;BME280;25231;48.746;9.234;2023-04-02T09:49:15;96512.06;;;8.92;100.00
39555;BME280;25231;48.746;9.234;2023-04-02T09:51:42;96518.59;;;9.01;100.00
39555;BME280;25231;48.746;9.234;2023-04-02T09:54:14;96512.13;;;9.15;100.00
39555;BME280;25231;48.746;9.234;2023-04-02T09:56:58;96516.69;;;9.19;100.00
39555;BME280;25231;48.746;9.234;2023-04-02T09:59:24;96518.78;;;9.29;100.00
39555;BME280;25231;48.746;9.234;2023-04-02T10:04:38;96529.66;;;9.26;100.00
39555;BME280;25231;48.746;9.234;2023-04-02T10:10:46;96541.84;;;9.32;100.00
39555;BME280;25231;48.746;9.234;2023-04-02T10:16:03;96538.22;;;9.33;100.00
39555;BME280;25231;48.746;9.234;2023-04-02T10:20:53;96543.34;;;9.40;100.00
39555;BME280;25231;48.746;9.234;2023-04-02T10:23:23;96545.19;;;9.51;100.00
39555;BME280;25231;48.746;9.234;2023-04-02T10:26:19;96548.72;;;9.45;100.00
39555;BME280;25231;48.746;9.234;2023-04-02T10:29:02;96545.88;;;9.70;100.00
39555;BME280;25231;48.746;9.234;2023-04-02T10:34:23;96543.97;;;10.23;100.00
39555;BME280;25231;48.746;9.234;2023-04-02T10:36:55;96553.31;;;10.19;100.00
39555;BME280;25231;48.746;9.234;2023-04-02T10:44:43;96549.88;;;9.95;100.00
39555;BME280;25231;48.746;9.234;2023-04-02T10:52:34;96574.00;;;10.09;100.00
39555;BME280;25231;48.746;9.234;2023-04-02T10:55:05;96566.50;;;10.13;100.00
39555;BME280;25231;48.746;9.234;2023-04-02T10:57:40;96568.25;;;10.19;100.00
39555;BME280;25231;48.746;9.234;2023-04-02T11:02:45;96578.34;;;10.38;100.00
39555;BME280;25231;48.746;9.234;2023-04-02T11:05:25;96582.78;;;10.38;100.00
39555;BME280;25231;48.746;9.234;2023-04-02T11:08:00;96589.19;;;10.42;100.00
39555;BME280;25231;48.746;9.234;2023-04-02T11:10:30;96595.19;;;10.31;100.00
39555;BME280;25231;48.746;9.234;2023-04-02T11:13:02;96593.06;;;10.28;100.00
39555;BME280;25231;48.746;9.234;2023-04-02T11:15:30;96589.03;;;10.37;98.60
39555;BME280;25231;48.746;9.234;2023-04-02T11:17:56;96600.00;;;10.34;100.00
39555;BME280;25231;48.746;9.234;2023-04-02T11:23:12;96600.78;;;10.34;100.00
39555;BME280;25231;48.746;9.234;2023-04-02T11:25:38;96598.28;;;10.39;100.00
39555;BME280;25231;48.746;9.234;2023-04-02T11:28:25;96608.84;;;10.56;100.00
39555;BME280;25231;48.746;9.234;2023-04-02T11:30:52;96607.09;;;10.85;100.00
39555;BME280;25231;48.746;9.234;2023-04-02T11:35:56;96614.38;;;10.83;98.55
39555;BME280;25231;48.746;9.234;2023-04-02T11:46:01;96614.03;;;10.91;98.31
39555;BME280;25231;48.746;9.234;2023-04-02T11:48:34;96624.13;;;10.99;98.50
39555;BME280;25231;48.746;9.234;2023-04-02T11:51:21;96621.66;;;11.21;96.89
39555;BME280;25231;48.746;9.234;2023-04-02T11:53:54;96617.84;;;11.12;97.73
39555;BME280;25231;48.746;9.234;2023-04-02T11:56:39;96622.97;;;11.07;96.24
39555;BME280;25231;48.746;9.234;2023-04-02T12:02:05;96624.94;;;11.00;97.48
39555;BME280;25231;48.746;9.234;2023-04-02T12:07:48;96626.38;;;11.19;97.26
39555;BME280;25231;48.746;9.234;2023-04-02T12:10:04;96639.72;;;11.74;94.77
39555;BME280;25231;48.746;9.234;2023-04-02T12:12:37;96630.47;;;11.43;92.68
39555;BME280;25231;48.746;9.234;2023-04-02T12:18:16;96634.38;;;11.41;87.09
39555;BME280;25231;48.746;9.234;2023-04-02T12:20:54;96642.34;;;11.17;87.35
39555;BME280;25231;48.746;9.234;2023-04-02T12:23:28;96648.88;;;11.32;87.81
39555;BME280;25231;48.746;9.234;2023-04-02T12:28:25;96639.09;;;11.55;87.26
39555;BME280;25231;48.746;9.234;2023-04-02T12:33:37;96641.47;;;12.02;83.85
39555;BME280;25231;48.746;9.234;2023-04-02T12:36:05;96643.22;;;12.13;84.00
39555;BME280;25231;48.746;9.234;2023-04-02T12:38:41;96652.72;;;11.69;84.09
39555;BME280;25231;48.746;9.234;2023-04-02T12:44:02;96650.41;;;12.01;84.48
39555;BME280;25231;48.746;9.234;2023-04-02T12:46:29;96655.50;;;12.24;82.99
39555;BME280;25231;48.746;9.234;2023-04-02T12:49:03;96654.72;;;11.34;86.18
39555;BME280;25231;48.746;9.234;2023-04-02T12:51:29;96658.75;;;11.53;86.84
39555;BME280;25231;48.746;9.234;2023-04-02T12:53:55;96658.63;;;11.76;85.90
39555;BME280;25231;48.746;9.234;2023-04-02T12:56:22;96655.78;;;11.49;86.67
39555;BME280;25231;48.746;9.234;2023-04-02T12:58:56;96663.78;;;11.43;87.32
39555;BME280;25231;48.746;9.234;2023-04-02T13:01:24;96668.88;;;11.21;89.61
39555;BME280;25231;48.746;9.234;2023-04-02T13:03:59;96669.94;;;11.20;90.08
39555;BME280;25231;48.746;9.234;2023-04-02T13:06:25;96662.28;;;11.18;91.69
39555;BME280;25231;48.746;9.234;2023-04-02T13:08:52;96661.13;;;10.86;92.46
39555;BME280;25231;48.746;9.234;2023-04-02T13:11:18;96671.69;;;11.03;92.59
39555;BME280;25231;48.746;9.234;2023-04-02T13:13:46;96665.06;;;11.00;91.08
39555;BME280;25231;48.746;9.234;2023-04-02T13:18:46;96679.91;;;10.95;92.58
39555;BME280;25231;48.746;9.234;2023-04-02T13:23:44;96674.88;;;11.05;90.55
39555;BME280;25231;48.746;9.234;2023-04-02T13:26:20;96679.94;;;10.83;93.50
39555;BME280;25231;48.746;9.234;2023-04-02T13:29:09;96681.91;;;10.53;100.00
39555;BME280;25231;48.746;9.234;2023-04-02T13:31:41;96684.28;;;10.42;100.00
39555;BME280;25231;48.746;9.234;2023-04-02T13:34:06;96684.63;;;10.23;100.00
39555;BME280;25231;48.746;9.234;2023-04-02T13:36:32;96680.72;;;10.14;100.00
39555;BME280;25231;48.746;9.234;2023-04-02T13:38:57;96693.22;;;10.12;100.00
39555;BME280;25231;48.746;9.234;2023-04-02T13:41:27;96696.19;;;10.15;100.00
39555;BME280;25231;48.746;9.234;2023-04-02T13:43:54;96685.31;;;10.18;100.00
39555;BME280;25231;48.746;9.234;2023-04-02T13:46:23;96685.66;;;10.33;100.00
39555;BME280;25231;48.746;9.234;2023-04-02T13:48:50;96699.53;;;10.22;100.00
39555;BME280;25231;48.746;9.234;2023-04-02T13:51:17;96692.22;;;10.13;100.00
39555;BME280;25231;48.746;9.234;2023-04-02T13:53:44;96701.22;;;10.17;100.00
39555;BME280;25231;48.746;9.234;2023-04-02T13:56:10;96701.50;;;10.09;100.00
39555;BME280;25231;48.746;9.234;2023-04-02T13:58:36;96693.50;;;9.92;100.00
39555;BME280;25231;48.746;9.234;2023-04-02T14:01:01;96694.41;;;9.74;100.00
39555;BME280;25231;48.746;9.234;2023-04-02T14:03:28;96702.25;;;9.74;100.00
39555;BME280;25231;48.746;9.234;2023-04-02T14:09:02;96704.53;;;9.82;100.00
39555;BME280;25231;48.746;9.234;2023-04-02T14:11:34;96716.34;;;9.43;100.00
39555;BME280;25231;48.746;9.234;2023-04-02T14:40:26;96750.31;;;8.70;100.00
39555;BME280;25231;48.746;9.234;2023-04-02T14:43:00;96756.78;;;8.68;100.00
39555;BME280;25231;48.746;9.234;2023-04-02T14:50:47;96765.78;;;8.47;100.00
39555;BME280;25231;48.746;9.234;2023-04-02T14:53:17;96759.25;;;8.38;100.00
39555;BME280;25231;48.746;9.234;2023-04-02T14:55:47;96764.41;;;8.45;100.00
39555;BME280;25231;48.746;9.234;2023-04-02T14:58:30;96765.88;;;8.41;100.00
39555;BME280;25231;48.746;9.234;2023-04-02T15:01:00;96771.66;;;8.43;100.00
39555;BME280;25231;48.746;9.234;2023-04-02T15:03:35;96773.69;;;8.41;100.00
39555;BME280;25231;48.746;9.234;2023-04-02T15:06:07;96770.53;;;8.32;100.00
39555;BME280;25231;48.746;9.234;2023-04-02T15:08:42;96770.94;;;8.29;100.00
39555;BME280;25231;48.746;9.234;2023-04-02T15:11:16;96771.81;;;8.16;100.00
39555;BME280;25231;48.746;9.234;2023-04-02T15:14:00;96775.97;;;8.30;100.00
39555;BME280;25231;48.746;9.234;2023-04-02T15:16:28;96780.13;;;8.07;100.00
39555;BME280;25231;48.746;9.234;2023-04-02T15:19:01;96796.03;;;7.99;100.00
39555;BME280;25231;48.746;9.234;2023-04-02T15:24:26;96795.16;;;7.73;100.00
39555;BME280;25231;48.746;9.234;2023-04-02T15:27:14;96801.41;;;7.72;100.00
39555;BME280;25231;48.746;9.234;2023-04-02T15:30:11;96799.63;;;7.66;100.00
39555;BME280;25231;48.746;9.234;2023-04-02T15:32:39;96804.66;;;7.61;100.00
39555;BME280;25231;48.746;9.234;2023-04-02T15:35:35;96802.69;;;7.50;100.00
39555;BME280;25231;48.746;9.234;2023-04-02T15:38:24;96813.75;;;7.39;100.00
39555;BME280;25231;48.746;9.234;2023-04-02T15:41:14;96810.78;;;7.35;100.00
39555;BME280;25231;48.746;9.234;2023-04-02T15:44:08;96822.03;;;7.29;100.00
39555;BME280;25231;48.746;9.234;2023-04-02T15:49:39;96826.81;;;7.32;100.00
39555;BME280;25231;48.746;9.234;2023-04-02T15:52:24;96832.66;;;7.28;100.00
39555;BME280;25231;48.746;9.234;2023-04-02T16:00:19;96843.69;;;7.03;100.00
39555;BME280;25231;48.746;9.234;2023-04-02T16:06:03;96858.75;;;6.88;100.00
39555;BME280;25231;48.746;9.234;2023-04-02T16:08:25;96862.78;;;6.84;100.00
39555;BME280;25231;48.746;9.234;2023-04-02T16:10:52;96862.75;;;6.78;100.00
39555;BME280;25231;48.746;9.234;2023-04-02T16:16:15;96875.00;;;6.57;100.00